CheckWX is a tool to help pilots better visualize weather data.  It is not intended as a substitute for an official pre-flight weather briefing.

08:06:11 UTC

KHRL TAF
Valley International Airport
Harlingen, Texas, USA
KHRL 190530Z 1906/2006 31005KT P6SM BKN070 FM191200 36008KT P6SM BKN070 FM191800 05010KT P6SM BKN050 TEMPO 1918/1922 SHRA

Mar-19@
06:00 UTC

Mar-19 @ 06:00 UTC

Mar-19@
12:00 UTC

Mar-19 @ 12:00 UTC

KHRL 190530Z 1906/2006 31005KT P6SM BKN070
Wind
  • 310° at 5 KTS
Cloud Levels
  • Broken at 7,000' AGL

Mar-19@
12:00 UTC

Mar-19 @ 12:00 UTC

Mar-19@
18:00 UTC

Mar-19 @ 18:00 UTC

FM191200 36008KT P6SM BKN070

From

From Standard forecast or significant change

Wind
  • 360° at 8 KTS
Cloud Levels
  • Broken at 7,000' AGL

Mar-19@
18:00 UTC

Mar-19 @ 18:00 UTC

Mar-19@
22:00 UTC

Mar-19 @ 22:00 UTC

TEMPO 1918/1922 SHRA

Temporary

Temporary Changes expected for less than half the time period

Conditions
Rain

Mar-19@
18:00 UTC

Mar-19 @ 18:00 UTC

Mar-20@
06:00 UTC

Mar-20 @ 06:00 UTC

FM191800 05010KT P6SM BKN050

From

From Standard forecast or significant change

Wind
  • 050° at 10 KTS
Cloud Levels
  • Broken at 5,000' AGL